Time;durP1;ratioP1;P1;durP2;ratioP2;P2;SDS_P1;SDS_P2;PMS_P1;PMS_P2;Temp;Humidity;BMP_temperature;BMP_pressure;BME280_temperature;BME280_humidity;BME280_pressure;Samples;Min_cycle;Max_cycle;Signal;HPM_P1;HPM_P2
2021/05/30 00:01:26;;;;;;;2.50;2.30;;;12.80;99.90;;;;;;5031355;28;20479;-52
2021/05/30 00:03:53;;;;;;;2.40;2.20;;;12.80;99.90;;;;;;5031186;28;20453;-52
2021/05/30 00:06:19;;;;;;;2.63;2.33;;;12.80;99.90;;;;;;5031241;28;20841;-52
2021/05/30 00:08:47;;;;;;;3.40;2.60;;;12.70;99.90;;;;;;5032256;28;20464;-52
2021/05/30 00:11:13;;;;;;;3.47;2.50;;;12.60;99.90;;;;;;5031400;28;20452;-52
2021/05/30 00:13:40;;;;;;;2.37;2.13;;;12.50;99.90;;;;;;5031547;28;20453;-52
2021/05/30 00:16:06;;;;;;;2.83;2.63;;;12.60;99.90;;;;;;5031330;28;20441;-52
2021/05/30 00:18:33;;;;;;;2.03;1.93;;;12.60;99.90;;;;;;5035866;28;20475;-52
2021/05/30 00:21:00;;;;;;;3.33;2.70;;;12.50;99.90;;;;;;5033436;28;20448;-52
2021/05/30 00:23:27;;;;;;;2.53;2.33;;;12.50;99.90;;;;;;5034860;28;20877;-52
2021/05/30 00:25:53;;;;;;;4.20;2.70;;;12.50;99.90;;;;;;5035028;28;20484;-52
2021/05/30 00:28:20;;;;;;;2.83;2.63;;;12.40;99.90;;;;;;5037965;28;20845;-52
2021/05/30 00:30:46;;;;;;;2.50;2.30;;;12.20;99.90;;;;;;5052076;28;20859;-52
2021/05/30 00:33:15;;;;;;;3.27;2.97;;;12.20;99.90;;;;;;5034597;28;20452;-52
2021/05/30 00:35:41;;;;;;;2.43;2.23;;;12.30;99.90;;;;;;5034517;28;20453;-52
2021/05/30 00:38:08;;;;;;;2.50;2.30;;;12.30;99.90;;;;;;5034808;28;20476;-52
2021/05/30 00:40:35;;;;;;;2.47;2.27;;;12.40;99.90;;;;;;5034724;28;20455;-52
2021/05/30 00:43:02;;;;;;;2.30;2.10;;;12.30;99.90;;;;;;5034495;28;20539;-52
2021/05/30 00:45:29;;;;;;;2.57;2.20;;;12.20;99.90;;;;;;5034568;28;20480;-52
2021/05/30 00:47:55;;;;;;;3.53;2.00;;;12.30;99.90;;;;;;5034463;28;20476;-52
2021/05/30 00:50:21;;;;;;;3.53;1.97;;;12.30;99.90;;;;;;5047202;28;20456;-52
2021/05/30 00:52:48;;;;;;;2.10;1.90;;;12.20;99.90;;;;;;5033883;28;21106;-52
2021/05/30 00:55:17;;;;;;;2.50;2.30;;;12.20;99.90;;;;;;5034488;28;20448;-52
2021/05/30 00:57:43;;;;;;;3.80;1.90;;;12.20;99.90;;;;;;5034292;28;21018;-52
2021/05/30 01:00:13;;;;;;;3.30;1.90;;;12.20;99.90;;;;;;5051786;28;20651;-52
2021/05/30 01:02:39;;;;;;;2.13;2.00;;;12.30;99.90;;;;;;5034823;28;20839;-52
2021/05/30 01:05:08;;;;;;;5.33;2.17;;;12.30;99.90;;;;;;5033758;28;20491;-52
2021/05/30 01:07:40;;;;;;;2.07;1.90;;;12.30;99.90;;;;;;5035860;28;20982;-52
2021/05/30 01:10:25;;;;;;;2.10;1.90;;;12.30;99.90;;;;;;5034867;28;20487;-52
2021/05/30 01:12:52;;;;;;;2.83;2.40;;;12.20;99.90;;;;;;5034005;28;20461;-52
2021/05/30 01:15:20;;;;;;;3.40;2.23;;;12.00;99.90;;;;;;5033776;28;20495;-52
2021/05/30 01:17:48;;;;;;;2.17;1.93;;;12.00;99.90;;;;;;5033408;28;20479;-52
2021/05/30 01:20:17;;;;;;;3.57;2.40;;;11.80;99.90;;;;;;5051678;28;20455;-52
2021/05/30 01:22:46;;;;;;;2.50;2.30;;;11.80;99.90;;;;;;5047318;28;20514;-52
2021/05/30 01:25:15;;;;;;;6.00;2.50;;;11.70;99.90;;;;;;5014112;28;20477;-52
2021/05/30 01:27:42;;;;;;;2.50;2.30;;;11.80;99.90;;;;;;5043204;28;20475;-52
2021/05/30 01:30:10;;;;;;;2.60;2.40;;;11.80;99.90;;;;;;5038573;28;20841;-52
2021/05/30 01:32:37;;;;;;;2.47;2.27;;;11.70;99.90;;;;;;5033928;28;20472;-52
2021/05/30 01:35:06;;;;;;;4.70;2.70;;;11.70;99.90;;;;;;5033600;28;20448;-51
2021/05/30 01:37:32;;;;;;;2.40;2.20;;;11.70;99.90;;;;;;5035415;28;21016;-52
2021/05/30 01:39:59;;;;;;;4.10;2.50;;;11.70;99.90;;;;;;5033429;28;20456;-52
2021/05/30 01:42:26;;;;;;;3.40;3.10;;;11.70;99.90;;;;;;5033648;28;20946;-52
2021/05/30 01:44:53;;;;;;;3.47;3.00;;;11.60;99.90;;;;;;5033037;28;20448;-52
2021/05/30 01:47:19;;;;;;;3.70;2.93;;;11.60;99.90;;;;;;5033644;28;20469;-51
2021/05/30 01:49:46;;;;;;;3.27;3.00;;;11.60;99.90;;;;;;5033262;28;20483;-52
2021/05/30 01:52:12;;;;;;;4.57;3.10;;;11.60;99.90;;;;;;5033206;28;20968;-53
2021/05/30 01:54:42;;;;;;;3.13;2.87;;;11.60;99.90;;;;;;5033925;28;20460;-52
2021/05/30 01:59:38;;;;;;;3.27;2.60;;;11.50;99.90;;;;;;5030742;28;20481;-50
2021/05/30 02:02:05;;;;;;;3.80;2.93;;;11.50;99.90;;;;;;5032455;28;20536;-50
2021/05/30 02:04:35;;;;;;;2.73;2.53;;;11.40;99.90;;;;;;5032936;28;20448;-49
2021/05/30 02:07:03;;;;;;;3.90;3.13;;;11.50;99.90;;;;;;5032882;28;20491;-50
2021/05/30 02:09:30;;;;;;;4.00;2.57;;;11.60;99.90;;;;;;5032959;28;20465;-50
2021/05/30 02:11:57;;;;;;;3.53;2.60;;;11.60;99.90;;;;;;5029641;28;20459;-50
2021/05/30 02:14:24;;;;;;;3.53;3.07;;;11.60;99.90;;;;;;5032042;28;20452;-50
2021/05/30 02:16:52;;;;;;;3.30;2.93;;;11.30;99.90;;;;;;5032967;28;20457;-50
2021/05/30 02:19:18;;;;;;;3.30;3.00;;;10.70;99.90;;;;;;5032794;28;20989;-50
2021/05/30 02:21:46;;;;;;;5.33;3.13;;;10.40;99.90;;;;;;5032423;28;20817;-50
2021/05/30 02:24:15;;;;;;;2.87;2.67;;;10.20;99.90;;;;;;5032075;28;20485;-49
2021/05/30 02:26:42;;;;;;;2.97;2.70;;;10.20;99.90;;;;;;5032742;28;20487;-50
2021/05/30 02:29:09;;;;;;;3.90;2.90;;;10.40;99.90;;;;;;5032424;28;20473;-49
2021/05/30 02:31:36;;;;;;;4.20;2.80;;;10.50;99.90;;;;;;5032393;28;20444;-50
2021/05/30 02:34:04;;;;;;;3.67;3.30;;;10.60;99.90;;;;;;5032093;28;20460;-50
2021/05/30 02:36:30;;;;;;;3.53;2.80;;;10.70;99.90;;;;;;5032492;28;20448;-50
2021/05/30 02:38:57;;;;;;;4.30;3.27;;;10.70;99.90;;;;;;5032124;28;20530;-49
2021/05/30 02:45:59;;;;;;;3.10;2.90;;;10.70;99.90;;;;;;5031609;28;20464;-50
2021/05/30 02:48:25;;;;;;;3.53;3.00;;;10.60;99.90;;;;;;5019153;28;21016;-49
2021/05/30 02:50:58;;;;;;;3.87;2.70;;;10.60;99.90;;;;;;5032053;28;20449;-49
2021/05/30 02:53:25;;;;;;;3.13;2.83;;;10.60;99.90;;;;;;5031932;28;20513;-49
2021/05/30 02:55:52;;;;;;;3.97;3.00;;;10.60;99.90;;;;;;5031838;28;20479;-49
2021/05/30 02:58:18;;;;;;;6.53;3.67;;;10.60;99.90;;;;;;5031866;28;21055;-49
2021/05/30 03:00:44;;;;;;;3.13;2.70;;;10.50;99.90;;;;;;5031591;28;20871;-50
2021/05/30 03:03:11;;;;;;;3.03;2.60;;;10.60;99.90;;;;;;5031862;28;21144;-50
2021/05/30 03:05:37;;;;;;;3.83;3.13;;;10.50;99.90;;;;;;5031823;28;20514;-50
2021/05/30 03:08:05;;;;;;;4.23;3.30;;;10.50;99.90;;;;;;5031328;28;20471;-49
2021/05/30 03:10:32;;;;;;;3.23;2.93;;;10.50;99.90;;;;;;5031866;28;20525;-48
2021/05/30 03:12:59;;;;;;;5.80;3.00;;;10.50;99.90;;;;;;5031834;28;20464;-49
2021/05/30 03:15:27;;;;;;;3.10;2.80;;;10.50;99.90;;;;;;5031357;28;20449;-50
2021/05/30 03:17:54;;;;;;;3.30;3.00;;;10.50;99.90;;;;;;5031469;28;20996;-49
2021/05/30 03:20:21;;;;;;;3.47;3.17;;;10.40;99.90;;;;;;5031512;28;20452;-50
2021/05/30 03:22:48;;;;;;;3.50;3.00;;;10.30;99.90;;;;;;5031412;28;20459;-50
2021/05/30 03:25:15;;;;;;;4.33;3.40;;;9.90;99.90;;;;;;5031431;28;20487;-50
2021/05/30 03:27:42;;;;;;;5.90;3.67;;;9.90;99.90;;;;;;5031531;28;20479;-50
2021/05/30 03:30:10;;;;;;;3.73;2.93;;;10.00;99.90;;;;;;5031221;28;20444;-49
2021/05/30 03:32:37;;;;;;;5.30;3.90;;;9.90;99.90;;;;;;5031206;28;20826;-49
2021/05/30 03:35:05;;;;;;;4.90;3.73;;;9.90;99.90;;;;;;5031079;28;20440;-50
2021/05/30 03:37:31;;;;;;;3.50;3.20;;;9.90;99.90;;;;;;5031066;28;20479;-49
2021/05/30 03:39:59;;;;;;;3.80;3.40;;;9.90;99.90;;;;;;5031745;28;20493;-50
2021/05/30 03:42:28;;;;;;;3.90;3.50;;;9.90;99.90;;;;;;5031525;28;20488;-50
2021/05/30 03:44:57;;;;;;;3.90;3.50;;;10.00;99.90;;;;;;5030566;28;20460;-50
2021/05/30 03:47:24;;;;;;;4.33;3.23;;;10.00;99.90;;;;;;5031159;28;20973;-50
2021/05/30 03:49:51;;;;;;;4.77;3.33;;;10.00;99.90;;;;;;5031399;28;20502;-50
2021/05/30 03:52:17;;;;;;;4.33;3.30;;;10.10;99.90;;;;;;5030961;28;20976;-49
2021/05/30 03:58:58;;;;;;;4.47;3.50;;;10.00;99.90;;;;;;5031084;28;20455;-48
2021/05/30 04:01:26;;;;;;;4.60;3.40;;;10.10;99.90;;;;;;5020501;28;20449;-49
2021/05/30 04:03:53;;;;;;;4.23;3.83;;;10.10;99.90;;;;;;5014630;28;20484;-49
2021/05/30 04:06:21;;;;;;;4.43;3.50;;;10.00;99.90;;;;;;5033153;28;20490;-49
2021/05/30 04:08:48;;;;;;;5.20;3.97;;;10.00;99.90;;;;;;5033277;28;20471;-48
2021/05/30 04:11:15;;;;;;;4.70;3.70;;;10.00;99.90;;;;;;5034903;28;20503;-48
2021/05/30 04:13:44;;;;;;;4.03;3.50;;;9.70;99.90;;;;;;5034540;28;20452;-49
2021/05/30 04:16:11;;;;;;;4.80;3.87;;;9.60;99.90;;;;;;5020590;28;20445;-49
2021/05/30 04:18:38;;;;;;;4.67;3.60;;;9.60;99.90;;;;;;5017320;28;20495;-49
2021/05/30 04:21:05;;;;;;;6.93;4.00;;;9.80;99.90;;;;;;5016267;28;20448;-50
2021/05/30 04:23:32;;;;;;;4.87;4.30;;;10.00;99.90;;;;;;5014614;28;20489;-50
2021/05/30 04:25:59;;;;;;;3.67;3.27;;;10.10;99.90;;;;;;5028140;28;20476;-49
2021/05/30 04:28:25;;;;;;;5.17;4.37;;;10.30;99.90;;;;;;5031389;28;21108;-49
2021/05/30 04:30:52;;;;;;;4.47;3.77;;;10.40;99.90;;;;;;5016338;28;20457;-48
2021/05/30 04:33:18;;;;;;;4.07;3.43;;;10.50;99.90;;;;;;5033128;28;20448;-49
2021/05/30 04:35:45;;;;;;;4.30;3.90;;;10.60;99.90;;;;;;5032698;28;20440;-49
2021/05/30 04:38:12;;;;;;;4.03;3.60;;;10.60;99.90;;;;;;5032662;28;20464;-49
2021/05/30 04:40:38;;;;;;;4.13;3.53;;;10.60;99.90;;;;;;5027497;28;20452;-50
2021/05/30 04:43:05;;;;;;;6.03;3.83;;;10.30;99.90;;;;;;5017422;28;20808;-49
2021/05/30 04:45:32;;;;;;;3.80;3.43;;;10.20;99.90;;;;;;5018312;28;20603;-49
2021/05/30 04:47:58;;;;;;;5.43;3.03;;;10.50;99.90;;;;;;5014028;28;20471;-49
2021/05/30 04:50:25;;;;;;;4.87;3.90;;;10.90;99.90;;;;;;5014271;28;20467;-49
2021/05/30 04:52:52;;;;;;;7.53;3.10;;;11.10;99.90;;;;;;5014971;28;20453;-49
2021/05/30 04:55:19;;;;;;;2.83;2.63;;;11.40;99.90;;;;;;5016443;28;20453;-49
2021/05/30 04:57:45;;;;;;;5.30;2.47;;;11.90;99.90;;;;;;5015351;28;20477;-49
2021/05/30 05:00:15;;;;;;;5.93;2.57;;;13.00;99.90;;;;;;5016236;28;20525;-49
2021/05/30 05:02:42;;;;;;;2.60;2.30;;;14.30;99.90;;;;;;5019225;28;20458;-50
2021/05/30 05:05:11;;;;;;;2.50;2.30;;;15.60;99.90;;;;;;5013958;28;20445;-50
2021/05/30 05:07:37;;;;;;;3.50;2.33;;;16.80;99.90;;;;;;5013273;28;20471;-50
2021/05/30 05:10:06;;;;;;;2.13;1.93;;;17.80;99.90;;;;;;5018357;28;20838;-49
2021/05/30 05:12:33;;;;;;;2.17;1.97;;;18.60;99.90;;;;;;5014335;28;20458;-50
2021/05/30 05:15:00;;;;;;;2.30;2.10;;;18.70;99.90;;;;;;5014404;28;20442;-50
2021/05/30 05:17:26;;;;;;;2.40;2.20;;;19.00;99.90;;;;;;5031570;28;20465;-50
2021/05/30 05:19:53;;;;;;;2.50;2.30;;;19.10;99.90;;;;;;5031783;28;20455;-49
2021/05/30 05:22:20;;;;;;;2.43;1.80;;;19.90;99.90;;;;;;5031994;28;20445;-50
2021/05/30 05:24:46;;;;;;;3.00;2.10;;;20.20;99.90;;;;;;5031543;28;20499;-50
2021/05/30 05:27:14;;;;;;;2.37;2.20;;;21.00;99.90;;;;;;5031803;28;20495;-49
2021/05/30 05:29:40;;;;;;;4.10;2.30;;;21.70;99.00;;;;;;5031645;28;20444;-50
2021/05/30 05:32:07;;;;;;;2.50;2.30;;;21.90;97.50;;;;;;5030530;28;20895;-50
2021/05/30 05:34:34;;;;;;;3.63;2.40;;;21.80;97.10;;;;;;5030999;28;20969;-50
2021/05/30 05:37:00;;;;;;;2.50;2.30;;;21.80;96.60;;;;;;5031916;28;20515;-50
2021/05/30 05:39:27;;;;;;;2.13;2.03;;;22.40;96.40;;;;;;5015663;28;21065;-50
2021/05/30 05:41:53;;;;;;;2.60;2.40;;;22.10;95.80;;;;;;5027487;28;20958;-50
2021/05/30 05:44:21;;;;;;;2.80;2.60;;;22.40;95.40;;;;;;5023332;28;20449;-50
2021/05/30 05:46:47;;;;;;;2.60;2.40;;;22.50;94.80;;;;;;5015790;28;20477;-51
2021/05/30 05:49:14;;;;;;;3.53;2.63;;;22.50;94.40;;;;;;5019711;28;20469;-50
2021/05/30 05:51:40;;;;;;;2.33;2.20;;;22.30;94.80;;;;;;5028094;28;20445;-50
2021/05/30 05:54:07;;;;;;;2.80;2.40;;;22.40;96.10;;;;;;5028563;28;20441;-50
2021/05/30 05:56:33;;;;;;;2.97;2.67;;;22.70;94.10;;;;;;5019502;28;20507;-49
2021/05/30 05:58:59;;;;;;;2.67;2.47;;;22.20;94.10;;;;;;5031049;28;20464;-50
2021/05/30 06:01:27;;;;;;;2.90;2.70;;;22.60;94.10;;;;;;5030841;28;20457;-49
2021/05/30 06:03:53;;;;;;;2.80;2.60;;;23.30;92.90;;;;;;5031198;28;20445;-50
2021/05/30 06:06:20;;;;;;;2.73;2.53;;;23.30;93.00;;;;;;5028034;28;20481;-51
2021/05/30 06:08:47;;;;;;;2.63;2.20;;;23.50;92.80;;;;;;5014097;28;20465;-51
2021/05/30 06:11:15;;;;;;;3.50;2.70;;;23.60;92.40;;;;;;5012640;28;20448;-51
2021/05/30 06:13:44;;;;;;;3.67;2.50;;;24.10;92.10;;;;;;5019702;28;20446;-51
2021/05/30 06:16:11;;;;;;;3.10;2.90;;;24.30;91.50;;;;;;5015185;28;20453;-51
2021/05/30 06:18:38;;;;;;;2.27;2.17;;;24.10;93.00;;;;;;5014530;28;20473;-51
2021/05/30 06:21:05;;;;;;;2.90;2.70;;;23.50;92.70;;;;;;5021009;28;20457;-50
2021/05/30 06:23:31;;;;;;;4.10;3.17;;;23.20;92.90;;;;;;5017259;28;20990;-51
2021/05/30 06:25:58;;;;;;;3.10;2.80;;;23.50;92.70;;;;;;5016394;28;21003;-51
2021/05/30 06:28:24;;;;;;;3.07;2.73;;;23.70;93.30;;;;;;5027000;28;20495;-53
2021/05/30 06:30:51;;;;;;;3.03;2.80;;;24.10;91.70;;;;;;5025801;28;20963;-51
2021/05/30 06:33:18;;;;;;;3.37;3.07;;;24.40;91.90;;;;;;5027839;28;20459;-50
2021/05/30 06:35:45;;;;;;;3.30;3.10;;;23.60;90.60;;;;;;5016864;28;20508;-51
2021/05/30 06:38:12;;;;;;;3.23;2.90;;;23.50;92.50;;;;;;5022901;28;20543;-50
2021/05/30 06:40:40;;;;;;;3.23;3.03;;;23.60;92.80;;;;;;5015369;28;20453;-50
2021/05/30 06:43:09;;;;;;;3.73;2.80;;;23.10;93.00;;;;;;5012078;28;20449;-50
2021/05/30 06:45:36;;;;;;;3.33;3.03;;;23.60;92.90;;;;;;5011615;28;20593;-51
2021/05/30 06:48:03;;;;;;;3.03;2.40;;;23.80;92.00;;;;;;5012290;28;20838;-50
2021/05/30 06:50:30;;;;;;;2.83;2.63;;;24.10;90.40;;;;;;5027160;28;20441;-51
2021/05/30 06:52:58;;;;;;;2.70;2.50;;;23.40;90.00;;;;;;5019369;28;20449;-51
2021/05/30 06:55:25;;;;;;;2.80;2.60;;;23.70;90.60;;;;;;5020637;28;20456;-51
2021/05/30 06:57:51;;;;;;;4.90;3.20;;;24.30;88.30;;;;;;5029595;28;20747;-50
2021/05/30 07:00:19;;;;;;;4.87;3.40;;;25.00;87.80;;;;;;5032723;28;20489;-50
2021/05/30 07:02:46;;;;;;;6.93;2.50;;;23.30;91.50;;;;;;5043440;28;20449;-51
2021/05/30 07:05:12;;;;;;;2.30;2.17;;;22.40;91.40;;;;;;5030716;28;20987;-51
2021/05/30 07:07:39;;;;;;;3.00;2.80;;;22.80;91.40;;;;;;5031153;28;20537;-51
2021/05/30 07:10:08;;;;;;;2.67;2.47;;;24.00;88.30;;;;;;5033561;28;20484;-52
2021/05/30 07:12:35;;;;;;;5.23;2.57;;;24.00;88.10;;;;;;5044893;28;20538;-51
2021/05/30 07:15:02;;;;;;;2.70;2.50;;;24.50;88.30;;;;;;5030526;28;20471;-52
2021/05/30 07:17:28;;;;;;;4.67;2.73;;;24.30;91.10;;;;;;5029884;28;20555;-51
2021/05/30 07:19:57;;;;;;;2.53;2.33;;;24.30;88.50;;;;;;5028960;28;20463;-51
2021/05/30 07:22:23;;;;;;;2.53;2.33;;;24.40;90.10;;;;;;5030283;28;20464;-52
2021/05/30 07:24:50;;;;;;;3.10;2.33;;;24.30;87.30;;;;;;5029868;28;20834;-51
2021/05/30 07:27:17;;;;;;;2.40;2.20;;;23.80;88.10;;;;;;5030423;28;20481;-51
2021/05/30 07:29:44;;;;;;;2.27;2.17;;;23.30;89.90;;;;;;5030321;28;20972;-52
2021/05/30 07:32:10;;;;;;;2.57;2.37;;;22.40;92.40;;;;;;5027630;28;21227;-51
2021/05/30 07:34:37;;;;;;;2.17;2.00;;;22.10;91.50;;;;;;5025850;28;20455;-52
2021/05/30 07:37:04;;;;;;;2.30;2.20;;;22.10;90.90;;;;;;5029580;28;20445;-51
2021/05/30 07:39:30;;;;;;;3.83;2.23;;;22.70;90.00;;;;;;5024658;28;20530;-52
2021/05/30 07:41:57;;;;;;;2.20;2.10;;;22.10;91.00;;;;;;5015984;28;20892;-51
2021/05/30 07:44:25;;;;;;;2.57;2.37;;;21.70;91.90;;;;;;5021658;28;20968;-52
2021/05/30 07:46:55;;;;;;;2.20;2.00;;;21.90;91.60;;;;;;5024535;28;20481;-51
2021/05/30 07:49:25;;;;;;;2.30;2.20;;;22.50;90.10;;;;;;5025849;28;20993;-51
2021/05/30 07:51:52;;;;;;;2.37;2.13;;;23.10;88.50;;;;;;5028010;28;20460;-51
2021/05/30 07:54:22;;;;;;;2.00;1.90;;;21.80;90.90;;;;;;5011932;28;20500;-51
2021/05/30 07:56:50;;;;;;;2.40;2.20;;;22.70;90.10;;;;;;5021340;28;21089;-52
2021/05/30 07:59:20;;;;;;;2.10;2.00;;;23.90;88.20;;;;;;5019641;28;21075;-51
2021/05/30 08:01:48;;;;;;;2.67;2.43;;;23.80;89.10;;;;;;5028978;28;20482;-52
2021/05/30 08:04:15;;;;;;;2.40;2.20;;;24.10;88.20;;;;;;5029439;28;20464;-52
2021/05/30 08:06:45;;;;;;;2.50;2.30;;;23.70;89.30;;;;;;5037861;28;20962;-51
2021/05/30 08:09:15;;;;;;;2.70;2.50;;;24.00;90.20;;;;;;5037053;28;21043;-51
2021/05/30 08:11:44;;;;;;;2.17;1.97;;;24.20;89.60;;;;;;5024516;28;20464;-51
2021/05/30 08:14:11;;;;;;;2.67;2.17;;;23.80;86.60;;;;;;5030892;28;20993;-51
2021/05/30 08:16:43;;;;;;;2.10;2.00;;;24.40;87.20;;;;;;5039420;28;20449;-51
2021/05/30 08:19:17;;;;;;;2.73;2.53;;;24.50;90.30;;;;;;5029552;28;20480;-51
2021/05/30 08:21:44;;;;;;;3.50;2.37;;;22.50;91.00;;;;;;5029951;28;20531;-51
2021/05/30 08:24:11;;;;;;;2.63;2.43;;;21.30;92.80;;;;;;5029174;28;20452;-51
2021/05/30 08:26:39;;;;;;;3.50;2.50;;;21.40;92.90;;;;;;5026519;28;20480;-50
2021/05/30 08:29:06;;;;;;;4.73;2.40;;;21.80;92.70;;;;;;5029951;28;20483;-51
2021/05/30 08:31:33;;;;;;;3.30;2.30;;;22.20;91.90;;;;;;5030006;28;21071;-51
2021/05/30 08:34:00;;;;;;;3.13;2.00;;;22.10;93.10;;;;;;5018902;28;20828;-51
2021/05/30 08:36:29;;;;;;;2.50;2.30;;;22.50;91.70;;;;;;5029958;28;20536;-51
2021/05/30 08:38:56;;;;;;;2.17;2.07;;;22.10;92.70;;;;;;5029100;28;21044;-51
2021/05/30 08:41:23;;;;;;;1.80;1.70;;;22.70;92.40;;;;;;5026626;28;20508;-52
2021/05/30 08:43:49;;;;;;;2.27;1.60;;;22.70;91.40;;;;;;5032909;28;20452;-51
2021/05/30 08:46:16;;;;;;;2.00;1.80;;;22.70;90.30;;;;;;5033280;28;20484;-51
2021/05/30 08:48:43;;;;;;;1.87;1.77;;;23.40;84.70;;;;;;5070210;22;20495;-55
2021/05/30 08:51:12;;;;;;;2.20;2.00;;;24.30;84.10;;;;;;5061215;28;20492;-55
2021/05/30 08:53:43;;;;;;;1.87;1.77;;;23.60;84.40;;;;;;5053553;28;20541;-55
2021/05/30 08:56:12;;;;;;;1.70;1.60;;;23.50;86.30;;;;;;5046180;28;20528;-54
2021/05/30 08:58:41;;;;;;;1.80;1.70;;;22.70;89.00;;;;;;5044676;28;20474;-54
2021/05/30 09:01:10;;;;;;;1.70;1.60;;;23.50;88.90;;;;;;5045436;28;20498;-55
2021/05/30 09:03:55;;;;;;;1.77;1.67;;;23.60;84.50;;;;;;5039491;28;20448;-54
2021/05/30 09:06:23;;;;;;;1.67;1.57;;;22.90;85.00;;;;;;5046300;28;20494;-54
2021/05/30 09:08:54;;;;;;;1.53;1.43;;;22.40;86.50;;;;;;5051487;28;20521;-54
2021/05/30 09:11:40;;;;;;;1.53;1.43;;;22.30;85.50;;;;;;5045532;28;20522;-54
2021/05/30 09:14:10;;;;;;;1.80;1.70;;;22.40;84.50;;;;;;5048480;28;20458;-54
2021/05/30 09:16:54;;;;;;;2.13;1.93;;;22.30;85.80;;;;;;5033203;28;20449;-55
2021/05/30 09:19:32;;;;;;;1.70;1.60;;;23.30;83.00;;;;;;5037261;28;20488;-55
2021/05/30 09:22:22;;;;;;;1.70;1.60;;;23.00;83.60;;;;;;5043265;28;20440;-55
2021/05/30 09:25:21;;;;;;;1.60;1.50;;;23.60;84.60;;;;;;5037348;28;20451;-55
2021/05/30 09:27:53;;;;;;;1.70;1.60;;;22.20;86.60;;;;;;5045417;28;20493;-54
2021/05/30 09:30:23;;;;;;;2.13;1.53;;;22.70;85.40;;;;;;5044920;28;20601;-54
2021/05/30 09:33:02;;;;;;;2.73;2.27;;;23.00;83.20;;;;;;5039205;28;20440;-54
2021/05/30 09:35:48;;;;;;;1.70;1.60;;;22.80;86.20;;;;;;5033009;28;20463;-55
2021/05/30 09:38:17;;;;;;;2.17;1.70;;;22.90;87.50;;;;;;5033467;28;20473;-54
2021/05/30 09:40:46;;;;;;;1.73;1.33;;;22.50;86.30;;;;;;5033393;28;20437;-54
2021/05/30 09:43:16;;;;;;;1.70;1.43;;;22.20;80.20;;;;;;5050405;28;20447;-55
2021/05/30 09:45:56;;;;;;;1.90;1.60;;;22.70;82.80;;;;;;5042202;28;20460;-55
2021/05/30 09:48:22;;;;;;;2.30;1.60;;;23.10;83.00;;;;;;5045247;28;20540;-55
2021/05/30 09:51:03;;;;;;;1.87;1.77;;;23.70;83.30;;;;;;5070000;28;20447;-55
2021/05/30 09:53:31;;;;;;;1.50;1.40;;;23.50;81.90;;;;;;5062255;28;20952;-55
2021/05/30 09:56:00;;;;;;;2.37;1.40;;;22.90;82.70;;;;;;5052259;28;20460;-55
2021/05/30 09:58:26;;;;;;;3.67;1.60;;;22.70;83.70;;;;;;5052290;28;20478;-55
2021/05/30 10:01:04;;;;;;;1.77;1.67;;;23.10;83.50;;;;;;5053153;28;20470;-55
2021/05/30 10:03:31;;;;;;;2.13;1.43;;;23.00;87.40;;;;;;5052897;28;20452;-54
2021/05/30 10:06:00;;;;;;;1.50;1.40;;;22.70;81.00;;;;;;5052446;28;20488;-54
2021/05/30 10:08:27;;;;;;;1.60;1.50;;;22.50;81.80;;;;;;5051905;28;20479;-54
2021/05/30 10:10:54;;;;;;;1.50;1.40;;;23.20;74.80;;;;;;5052806;28;20455;-55
2021/05/30 10:13:22;;;;;;;2.17;1.40;;;23.40;77.20;;;;;;5052580;28;21012;-55
2021/05/30 10:15:48;;;;;;;1.70;1.47;;;22.80;80.50;;;;;;5052377;28;20463;-55
2021/05/30 10:18:19;;;;;;;1.83;1.73;;;23.50;76.60;;;;;;5052203;28;20472;-55
2021/05/30 10:20:47;;;;;;;2.00;1.80;;;22.80;78.30;;;;;;5052324;28;20535;-54
2021/05/30 10:23:17;;;;;;;1.70;1.60;;;22.70;79.10;;;;;;5049291;28;20977;-53
2021/05/30 10:25:45;;;;;;;1.70;1.60;;;22.00;76.90;;;;;;5034603;28;20452;-53
2021/05/30 10:28:14;;;;;;;2.13;2.00;;;21.70;77.80;;;;;;5039610;28;20555;-54
2021/05/30 10:30:43;;;;;;;2.20;1.80;;;21.50;85.20;;;;;;5032375;28;20445;-54
2021/05/30 10:33:18;;;;;;;1.60;1.50;;;21.60;83.60;;;;;;5031880;28;20518;-53
2021/05/30 10:35:47;;;;;;;7.50;2.00;;;21.60;83.70;;;;;;5033712;28;20443;-53
2021/05/30 10:38:33;;;;;;;2.10;2.00;;;21.40;81.10;;;;;;5035776;28;20490;-54
2021/05/30 10:41:14;;;;;;;2.60;1.53;;;22.00;82.80;;;;;;5035026;28;20445;-53
2021/05/30 10:43:41;;;;;;;2.90;2.70;;;21.90;80.10;;;;;;5041670;28;20601;-53
2021/05/30 10:46:09;;;;;;;2.90;2.70;;;21.90;80.40;;;;;;5043614;28;20495;-54
2021/05/30 10:48:37;;;;;;;2.63;2.43;;;21.90;83.00;;;;;;5038426;28;20491;-53
2021/05/30 10:51:41;;;;;;;3.20;2.07;;;21.90;80.50;;;;;;5046145;28;20445;-52
2021/05/30 10:54:22;;;;;;;2.23;2.13;;;21.30;81.80;;;;;;5038912;28;20501;-54
2021/05/30 10:56:56;;;;;;;2.27;2.17;;;21.70;82.70;;;;;;5045773;28;20950;-52
2021/05/30 10:59:27;;;;;;;4.13;1.90;;;21.80;89.10;;;;;;5047353;28;20469;-53
2021/05/30 11:01:56;;;;;;;2.50;1.77;;;21.60;84.00;;;;;;5049612;28;20439;-52
2021/05/30 11:04:36;;;;;;;2.97;1.73;;;21.20;84.30;;;;;;5047243;28;20436;-55
2021/05/30 11:07:23;;;;;;;2.93;2.63;;;21.80;82.60;;;;;;5043928;28;20536;-53
2021/05/30 11:10:22;;;;;;;1.80;1.70;;;22.10;88.70;;;;;;5034627;28;20456;-52
2021/05/30 11:12:54;;;;;;;2.67;1.90;;;21.20;82.70;;;;;;5051392;28;20440;-53
2021/05/30 11:15:32;;;;;;;3.37;1.90;;;20.50;86.90;;;;;;5035686;28;20518;-52
2021/05/30 11:18:01;;;;;;;1.93;1.83;;;20.50;88.30;;;;;;5034399;28;20464;-52
2021/05/30 11:20:37;;;;;;;2.67;2.47;;;20.90;85.00;;;;;;5040340;28;20534;-52
2021/05/30 11:23:05;;;;;;;4.30;2.33;;;20.90;87.20;;;;;;5038725;28;20524;-53
2021/05/30 11:25:34;;;;;;;5.53;1.90;;;21.10;87.90;;;;;;5042636;28;20494;-53
2021/05/30 11:28:03;;;;;;;2.80;1.80;;;21.10;86.70;;;;;;5042689;28;20479;-55
2021/05/30 11:30:58;;;;;;;2.07;1.83;;;21.40;82.60;;;;;;5033501;28;20522;-53
2021/05/30 11:33:40;;;;;;;2.33;2.10;;;21.00;81.90;;;;;;5051351;28;20479;-53
2021/05/30 11:36:10;;;;;;;1.77;1.67;;;21.20;81.30;;;;;;5049811;28;20443;-53
2021/05/30 11:38:41;;;;;;;2.13;1.93;;;21.40;84.10;;;;;;5048562;28;20476;-53
2021/05/30 11:41:17;;;;;;;1.93;1.73;;;20.50;83.60;;;;;;5051467;28;20452;-52
2021/05/30 11:43:57;;;;;;;2.20;1.80;;;20.40;83.60;;;;;;5051648;28;20492;-53
2021/05/30 11:46:25;;;;;;;1.90;1.67;;;20.50;86.00;;;;;;5050535;28;20480;-52
2021/05/30 11:49:17;;;;;;;2.10;1.90;;;20.50;84.00;;;;;;5050743;28;20545;-53
2021/05/30 11:52:01;;;;;;;1.53;1.43;;;20.50;84.60;;;;;;5028180;28;20970;-53
2021/05/30 11:54:31;;;;;;;2.47;1.60;;;20.80;84.30;;;;;;5050749;28;20554;-53
2021/05/30 11:57:00;;;;;;;1.93;1.83;;;20.80;83.10;;;;;;5050967;28;20440;-51
2021/05/30 11:59:31;;;;;;;1.40;1.30;;;20.30;81.90;;;;;;5042019;28;20449;-52
2021/05/30 12:01:58;;;;;;;1.70;1.60;;;20.20;83.60;;;;;;5049954;28;20451;-53
2021/05/30 12:04:29;;;;;;;1.80;1.70;;;20.10;83.00;;;;;;5051045;28;20444;-53
2021/05/30 12:06:55;;;;;;;1.67;1.57;;;20.30;86.00;;;;;;5050650;28;20490;-53
2021/05/30 12:09:22;;;;;;;2.27;1.60;;;20.40;83.50;;;;;;5050797;28;20475;-53
2021/05/30 12:11:49;;;;;;;2.17;1.80;;;20.10;81.20;;;;;;5051052;28;20503;-53
2021/05/30 12:14:15;;;;;;;1.80;1.70;;;20.30;82.30;;;;;;5051170;28;20455;-53
2021/05/30 12:16:46;;;;;;;1.57;1.47;;;20.40;81.40;;;;;;5051003;28;20455;-53
2021/05/30 12:19:13;;;;;;;1.97;1.67;;;20.60;80.10;;;;;;5051604;28;20464;-53
2021/05/30 12:21:43;;;;;;;3.30;1.80;;;20.60;79.70;;;;;;5054919;28;20460;-54
2021/05/30 12:24:10;;;;;;;3.03;1.63;;;20.70;81.40;;;;;;5054707;28;20448;-54
2021/05/30 12:26:40;;;;;;;2.40;1.83;;;20.80;79.50;;;;;;5054974;28;20487;-54
2021/05/30 12:29:07;;;;;;;1.60;1.50;;;20.70;78.60;;;;;;5054649;28;20529;-54
2021/05/30 12:31:34;;;;;;;2.77;1.53;;;20.70;83.70;;;;;;5054127;28;20459;-53
2021/05/30 12:34:02;;;;;;;3.50;1.90;;;20.60;77.60;;;;;;5053380;28;20877;-53
2021/05/30 12:36:34;;;;;;;2.23;1.93;;;20.60;80.20;;;;;;5049832;28;20831;-53
2021/05/30 12:39:04;;;;;;;1.97;1.77;;;20.50;79.80;;;;;;5054349;28;20533;-53
2021/05/30 12:41:36;;;;;;;2.20;2.00;;;20.10;78.80;;;;;;5055019;28;20424;-53
2021/05/30 12:44:06;;;;;;;2.10;1.80;;;20.50;80.80;;;;;;5054560;28;20948;-52
2021/05/30 12:46:34;;;;;;;2.00;1.57;;;20.60;78.10;;;;;;5054119;28;20475;-52
2021/05/30 12:49:13;;;;;;;1.93;1.83;;;20.70;76.90;;;;;;5054111;28;20471;-52
2021/05/30 12:51:56;;;;;;;2.00;1.90;;;20.10;79.70;;;;;;5054273;28;20538;-52
2021/05/30 12:54:24;;;;;;;1.97;1.80;;;20.30;81.00;;;;;;5054394;28;20475;-52
2021/05/30 12:56:51;;;;;;;2.80;1.90;;;20.50;81.20;;;;;;5054141;28;20996;-52
2021/05/30 12:59:20;;;;;;;3.93;2.13;;;20.50;78.10;;;;;;5054029;28;20869;-52
2021/05/30 13:01:50;;;;;;;1.90;1.80;;;19.90;78.70;;;;;;5053759;28;20455;-52
2021/05/30 13:04:23;;;;;;;2.03;1.80;;;20.10;80.80;;;;;;5054235;28;20448;-51
2021/05/30 13:06:53;;;;;;;3.10;1.90;;;20.10;79.80;;;;;;5053685;28;20483;-53
2021/05/30 13:09:20;;;;;;;2.13;2.03;;;19.90;80.10;;;;;;5042007;28;20472;-52